Change the Weather History Date:

Wednesday, October 23, 2013

  Actual Average Record
Temperature  
Mean Temperature 81 °F -  
Max Temperature 98 °F - - ()
Min Temperature 62 °F - - ()
Cooling Degree Days 16    
Growing Degree Days 31 (Base 50)    
Moisture  
Dew Point 52 °F    
Average Humidity 46    
Maximum Humidity 88    
Minimum Humidity 5    
Precipitation  
Precipitation 0.00 in - - ()
Sea Level Pressure  
Sea Level Pressure 29.71 in    
Wind  
Wind Speed 11 mph ()    
Max Wind Speed 31 mph    
Max Gust Speed 48 mph    
Visibility 6.2 miles    
Events      
T = Trace of Precipitation, MM = Missing Value Source: Averaged Metar Reports

Daily Weather History Graph

Daily Weather History Graph

Search for Another Location

Airport or City:

Trip Planner

Search our weather history database for the weather conditions in past years. The results will help you decide how hot, cold, wet, or windy it might be!

Date:

Astronomy

Oct. 23, 2013 Rise Set
Actual Time 6:03 AM AEDT 7:11 PM AEDT
Civil Twilight 5:37 AM AEDT 7:36 PM AEDT
Nautical Twilight 5:07 AM AEDT 8:07 PM AEDT
Astronomical Twilight 4:36 AM AEDT 8:38 PM AEDT
Moon 11:04 PM AEDT (10/23) 8:50 AM AEDT (10/23)
Length of Visible Light 13h 58m
Length of Day
13h 07m
Waning Gibbous, 84% of the Moon is Illuminated
Oct 23
Waning Gibbous
Oct 27
Last Quarter
Nov 3
New
Nov 10
First Quarter
Nov 18
Full

Hourly Weather History & Observations

Time (AEDT) Temp. Heat Index Dew Point Humidity Pressure Visibility Wind Dir Wind Speed Gust Speed Precip Events Conditions
12:00 AM 69 °F - 64 °F 77% 29.80 in - NE 6.9 mph - -  
12:00 AM 68.0 °F - 64.4 °F 88% 29.80 in 6.2 mi NE 6.9 mph - N/A   Unknown
12:30 AM 69.8 °F - 64.4 °F 83% 29.77 in 6.2 mi NE 8.1 mph - N/A   Unknown
1:00 AM 69.8 °F - 62.6 °F 78% 29.77 in 6.2 mi NNE 8.1 mph - N/A   Unknown
1:30 AM 69.8 °F - 64.4 °F 83% 29.77 in 6.2 mi NNW 6.9 mph - N/A   Scattered Clouds
2:00 AM 69 °F - 63 °F 76% 29.81 in - West 10.4 mph - -  
2:00 AM 69.8 °F - 62.6 °F 78% 29.80 in 6.2 mi West 10.4 mph - N/A   Scattered Clouds
2:30 AM 68.0 °F - 62.6 °F 83% 29.80 in 6.2 mi West 5.8 mph - N/A   Unknown
3:00 AM 69 °F - 63 °F 76% 29.80 in - NW 5.8 mph - -  
3:00 AM 68.0 °F - 62.6 °F 83% 29.80 in 6.2 mi NW 5.8 mph - N/A   Unknown
3:30 AM 68.0 °F - 64.4 °F 88% 29.80 in 6.2 mi NNW 5.8 mph - N/A   Unknown
4:00 AM 68.0 °F - 64.4 °F 88% 29.80 in 6.2 mi NW 5.8 mph - N/A   Mostly Cloudy
4:30 AM 68.0 °F - 62.6 °F 83% 29.77 in 6.2 mi North 4.6 mph - N/A   Unknown
5:00 AM 71 °F - 62 °F 65% 29.74 in - NNE 9.2 mph - -  
5:00 AM 69.8 °F - 62.6 °F 78% 29.71 in 6.2 mi NNE 9.2 mph - N/A   Unknown
5:30 AM 69.8 °F - 60.8 °F 73% 29.71 in 6.2 mi ENE 4.6 mph - N/A   Unknown
6:00 AM 67 °F - 62 °F 79% 29.74 in - North 4.6 mph - -  
6:00 AM 68.0 °F - 62.6 °F 83% 29.71 in - North 4.6 mph - N/A   Clear
6:30 AM 66.2 °F - 62.6 °F 88% 29.74 in - Calm Calm - N/A   Clear
7:00 AM 71.6 °F - 60.8 °F 69% 29.74 in - North 6.9 mph - N/A   Clear
7:30 AM 71.6 °F - 60.8 °F 69% 29.74 in - NNE 6.9 mph - N/A   Clear
8:00 AM 72 °F - 62 °F 62% 29.74 in - NE 2.3 mph - -  
8:00 AM 71.6 °F - 62.6 °F 73% 29.74 in - NE 2.3 mph - N/A   Clear
8:30 AM 75.2 °F - 60.8 °F 61% 29.71 in - NNE 6.9 mph - N/A   Clear
9:00 AM 75 °F - 62 °F 56% 29.73 in - East 4.6 mph - -  
9:00 AM 75.2 °F - 62.6 °F 65% 29.71 in - East 4.6 mph - N/A   Clear
9:30 AM 78.8 °F - 60.8 °F 54% 29.71 in - ENE 6.9 mph - N/A   Clear
10:00 AM 80.6 °F 81.8 °F 62.6 °F 54% 29.71 in - SE 6.9 mph - N/A   Clear
10:30 AM 86.0 °F 85.4 °F 59.0 °F 40% 29.68 in - NNE 5.8 mph - N/A   Clear
10:50 AM 93.2 °F - 46.4 °F 20% 29.68 in - NW 18.4 mph 29.9 mph N/A   Clear
11:00 AM 93 °F - 46 °F 12% 29.69 in - NW 25.3 mph - -  
11:00 AM 93.2 °F - 46.4 °F 20% 29.68 in - NW 25.3 mph - N/A   Clear
11:20 AM 91.4 °F - 46.4 °F 21% 29.65 in - NW 20.7 mph 32.2 mph N/A   Clear
11:30 AM 93.2 °F - 46.4 °F 20% 29.65 in - WNW 23.0 mph 36.8 mph N/A   Clear
11:51 AM 93.2 °F - 44.6 °F 19% 29.65 in 6.2 mi NW 27.6 mph - N/A   Unknown
12:00 PM 96 °F - 46 °F 10% 29.66 in - NW 23.0 mph - -  
12:00 PM 95.0 °F - 46.4 °F 19% 29.65 in 6.2 mi NW 23.0 mph - N/A   Unknown
12:10 PM 96.8 °F - 44.6 °F 17% 29.65 in 6.2 mi WNW 24.2 mph - N/A   Unknown
12:19 PM 95.0 °F - 44.6 °F 18% 29.65 in 6.2 mi NW 21.9 mph 33.4 mph N/A   Scattered Clouds
12:30 PM 96.8 °F - 44.6 °F 17% 29.65 in - NW 24.2 mph - N/A   Clear
12:41 PM 96.8 °F - 44.6 °F 17% 29.62 in - NW 23.0 mph 35.7 mph N/A   Clear
12:49 PM 96.8 °F - 44.6 °F 17% 29.62 in - West 27.6 mph - N/A   Clear
12:58 PM 96.8 °F - 44.6 °F 17% 29.62 in - WNW 27.6 mph 43.7 mph N/A   Clear
1:30 PM 95.0 °F - 46.4 °F 19% 29.62 in - WNW 31.1 mph 42.6 mph N/A   Clear
2:00 PM 97 °F - 46 °F 10% 29.62 in - WNW 31.1 mph - -  
2:00 PM 96.8 °F - 46.4 °F 18% 29.62 in - WNW 31.1 mph 43.7 mph N/A   Clear
2:30 PM 98.6 °F - 48.2 °F 18% 29.62 in - WNW 27.6 mph 39.1 mph N/A   Clear
3:00 PM 96 °F - 44 °F 9% 29.62 in - WNW 28.8 mph - -  
3:00 PM 96.8 °F - 44.6 °F 17% 29.59 in - WNW 28.8 mph 41.4 mph N/A   Clear
3:30 PM 96.8 °F - 46.4 °F 18% 29.59 in - WNW 31.1 mph 48.3 mph N/A   Clear
4:00 PM 95.0 °F - 41.0 °F 15% 29.59 in 6.2 mi West 27.6 mph 41.4 mph N/A   Smoke
4:30 PM 95.0 °F - 37.4 °F 13% 29.59 in 6.2 mi West 28.8 mph 40.3 mph N/A   Smoke
5:00 PM 95 °F - 34 °F 5% 29.63 in - WNW 27.6 mph - -  
5:00 PM 95.0 °F - 33.8 °F 12% 29.62 in 6.2 mi WNW 27.6 mph - N/A   Partly Cloudy
5:13 PM 95.0 °F - 37.4 °F 13% 29.62 in 6.2 mi WNW 26.5 mph 38.0 mph N/A   Unknown
5:30 PM 93.2 °F - 35.6 °F 13% 29.62 in - West 26.5 mph 41.4 mph N/A   Clear
5:45 PM 93.2 °F - 37.4 °F 14% 29.62 in - WSW 19.6 mph - N/A   Clear
5:49 PM 93.2 °F - 35.6 °F 13% 29.62 in - West 23.0 mph - N/A   Clear
6:00 PM 92 °F - 33 °F 6% 29.65 in - West 20.7 mph - -  
6:00 PM 91.4 °F - 33.8 °F 13% 29.62 in - West 20.7 mph - N/A   Clear
6:27 PM 89.6 °F - 28.4 °F 11% 29.65 in - West 18.4 mph 29.9 mph N/A   Clear
6:30 PM 89.6 °F - 32.0 °F 13% 29.65 in - West 19.6 mph - N/A   Clear
7:00 PM 86.0 °F - 32.0 °F 14% 29.68 in - West 11.5 mph - N/A   Clear
7:30 PM 84.2 °F - 30.2 °F 14% 29.71 in - West 9.2 mph - N/A   Clear
7:40 PM 75.2 °F - 62.6 °F 65% 29.71 in - SSE 15.0 mph - N/A   Clear
8:00 PM 73 °F - 64 °F 65% 29.75 in - ESE 11.5 mph - -  
8:00 PM 73.4 °F - 64.4 °F 73% 29.74 in - ESE 11.5 mph - N/A   Clear
8:30 PM 73.4 °F - 59.0 °F 61% 29.77 in - ESE 8.1 mph - N/A   Clear
9:00 PM 71 °F - 59 °F 57% 29.81 in - East 6.9 mph - -  
9:00 PM 71.6 °F - 59.0 °F 64% 29.80 in - East 6.9 mph - N/A   Clear
9:30 PM 69.8 °F - 59.0 °F 68% 29.80 in - ESE 4.6 mph - N/A   Clear
10:00 PM 66.2 °F - 59.0 °F 78% 29.80 in - Calm Calm - N/A   Clear
10:30 PM 64.4 °F - 57.2 °F 77% 29.80 in 6.2 mi Calm Calm - N/A   Unknown
11:00 PM 64 °F - 58 °F 77% 29.83 in - Calm Calm - -  
11:00 PM 64.4 °F - 59.0 °F 83% 29.83 in 6.2 mi Calm Calm - N/A   Unknown
11:30 PM 62.6 °F - 57.2 °F 82% 29.83 in 6.2 mi Calm Calm - N/A   Unknown